createdAt,value
2019-02-04T00:04:41.934Z,28.17
2019-02-04T00:10:45.296Z,31.57
2019-02-04T00:16:47.529Z,23.73
2019-02-04T00:22:50.219Z,25.45
2019-02-04T00:28:53.791Z,26.65
2019-02-04T00:34:56.174Z,26.20
2019-02-04T00:40:58.486Z,27.62
2019-02-04T00:47:00.787Z,25.45
2019-02-04T00:53:02.978Z,26.20
2019-02-04T00:59:05.403Z,28.00
2019-02-04T01:05:07.559Z,24.60
2019-02-04T01:11:09.971Z,26.25
2019-02-04T01:17:12.323Z,21.17
2019-02-04T01:23:14.536Z,24.50
2019-02-04T01:29:16.899Z,20.72
2019-02-04T01:35:19.489Z,20.50
2019-02-04T01:41:23.493Z,20.43
2019-02-04T01:47:25.839Z,20.60
2019-02-04T01:53:28.113Z,19.70
2019-02-04T01:59:30.845Z,18.05
2019-02-04T02:05:33.074Z,22.77
2019-02-04T02:11:35.327Z,22.58
2019-02-04T02:17:38.537Z,21.48
2019-02-04T02:23:40.788Z,22.00
2019-02-04T02:29:43.035Z,23.12
2019-02-04T02:35:48.612Z,23.92
2019-02-04T02:41:50.895Z,23.87
2019-02-04T02:47:53.292Z,24.60
2019-02-04T02:53:55.525Z,24.85
2019-02-04T02:59:57.895Z,22.32
2019-02-04T03:06:00.182Z,23.62
2019-02-04T03:12:02.550Z,23.32
2019-02-04T03:18:04.659Z,23.18
2019-02-04T03:24:06.893Z,23.22
2019-02-04T03:30:30.437Z,29.05
2019-02-04T03:36:32.863Z,27.37
2019-02-04T03:42:35.223Z,31.12
2019-02-04T03:48:37.421Z,30.25
2019-02-04T03:54:40.709Z,27.60
2019-02-04T04:00:43.360Z,30.27
2019-02-04T04:06:45.697Z,29.02
2019-02-04T04:12:47.848Z,28.55
2019-02-04T04:18:50.095Z,29.63
2019-02-04T04:24:52.338Z,29.77
2019-02-04T04:30:54.466Z,28.83
2019-02-04T04:36:57.079Z,30.60
2019-02-04T04:43:00.335Z,29.23
2019-02-04T04:49:02.596Z,31.35
2019-02-04T04:55:05.983Z,28.38
2019-02-04T05:01:08.448Z,29.82
2019-02-04T05:07:10.563Z,27.52
2019-02-04T05:13:13.952Z,29.00
2019-02-04T05:19:16.183Z,35.58
2019-02-04T05:25:19.522Z,31.55
2019-02-04T05:31:22.730Z,29.70
2019-02-04T05:37:24.982Z,31.68
2019-02-04T05:43:27.396Z,29.90
2019-02-04T05:49:29.596Z,29.42
2019-02-04T05:55:32.106Z,32.17
2019-02-04T06:01:34.239Z,29.37
2019-02-04T06:07:36.635Z,28.90
2019-02-04T06:13:39.948Z,32.08
2019-02-04T06:19:42.290Z,31.17
2019-02-04T06:25:45.514Z,32.83
2019-02-04T06:31:47.760Z,32.35
2019-02-04T06:37:51.359Z,36.28
2019-02-04T06:43:53.789Z,37.25
2019-02-04T06:49:57.346Z,30.75
2019-02-04T06:55:59.707Z,31.80
2019-02-04T07:02:02.164Z,30.92
2019-02-04T07:08:05.572Z,32.40
2019-02-04T07:14:09.191Z,28.92
2019-02-04T07:20:14.365Z,32.60
2019-02-04T07:26:16.702Z,36.13
2019-02-04T07:32:19.013Z,44.20
2019-02-04T07:38:21.177Z,39.78
2019-02-04T07:44:23.373Z,37.80
2019-02-04T07:50:25.570Z,42.98
2019-02-04T07:56:27.731Z,40.85
2019-02-04T08:02:30.600Z,41.88
2019-02-04T08:08:33.119Z,41.83
2019-02-04T08:14:35.257Z,38.17
2019-02-04T08:20:37.496Z,36.30
2019-02-04T08:26:40.925Z,39.55
2019-02-04T08:32:43.288Z,36.77
2019-02-04T08:38:45.717Z,36.42
2019-02-04T08:44:48.075Z,42.27
2019-02-04T08:50:50.493Z,38.80
2019-02-04T08:56:52.830Z,41.25
2019-02-04T09:02:55.002Z,40.08
2019-02-04T09:08:57.854Z,41.02
2019-02-04T09:15:00.101Z,42.67
2019-02-04T09:21:02.911Z,37.20
2019-02-04T09:27:05.925Z,36.90
2019-02-04T09:33:08.015Z,40.48
2019-02-04T09:39:10.325Z,33.02
2019-02-04T09:45:14.863Z,37.73
2019-02-04T09:51:17.444Z,34.18
2019-02-04T09:57:19.810Z,33.75
2019-02-04T10:03:22.283Z,38.85
2019-02-04T10:09:26.116Z,30.02
2019-02-04T10:15:30.528Z,27.32
2019-02-04T10:21:32.719Z,29.12
2019-02-04T10:27:36.502Z,25.97
2019-02-04T10:33:39.289Z,24.90
2019-02-04T10:39:41.392Z,23.65
2019-02-04T10:45:43.662Z,24.20
2019-02-04T10:51:46.056Z,26.27
2019-02-04T10:57:48.821Z,21.82
2019-02-04T11:03:50.923Z,24.20
2019-02-04T11:09:53.143Z,23.00
2019-02-04T11:15:55.548Z,24.52
2019-02-04T11:21:57.724Z,24.67
2019-02-04T11:28:00.362Z,22.80
2019-02-04T11:34:02.484Z,23.83
2019-02-04T11:40:04.775Z,21.48
2019-02-04T11:46:07.085Z,22.50
2019-02-04T11:52:12.118Z,21.48
2019-02-04T11:58:14.562Z,22.85
2019-02-04T12:04:17.853Z,22.42
2019-02-04T12:10:32.360Z,19.55
2019-02-04T12:16:34.845Z,17.95
2019-02-04T12:22:37.018Z,19.40
2019-02-04T12:28:39.131Z,16.05
2019-02-04T12:34:41.371Z,18.25
2019-02-04T12:40:43.635Z,19.70
2019-02-04T12:46:46.135Z,15.95
2019-02-04T12:52:48.610Z,19.07
2019-02-04T12:58:55.715Z,21.23
2019-02-04T13:04:55.731Z,21.87
2019-02-04T13:10:58.802Z,24.20
2019-02-04T13:17:01.937Z,23.85
2019-02-04T13:23:04.329Z,24.63
2019-02-04T13:29:06.946Z,21.00
2019-02-04T13:35:09.494Z,19.32
2019-02-04T13:41:12.810Z,19.05
2019-02-04T13:47:15.268Z,23.22
2019-02-04T13:53:17.791Z,22.95
2019-02-04T13:59:20.447Z,22.22
2019-02-04T14:05:22.753Z,21.55
2019-02-04T14:11:26.120Z,22.95
2019-02-04T14:17:29.553Z,23.15
2019-02-04T14:23:31.678Z,18.98
2019-02-04T14:29:34.382Z,20.45
2019-02-04T14:35:36.566Z,22.77
2019-02-04T14:41:39.203Z,21.95
2019-02-04T14:48:02.799Z,22.20
2019-02-04T14:54:37.686Z,24.47
2019-02-04T15:01:10.295Z,22.00
2019-02-04T15:07:49.526Z,22.67
2019-02-04T15:14:30.723Z,25.62
2019-02-04T15:21:09.047Z,28.77
2019-02-04T15:27:33.057Z,43.92
2019-02-04T15:33:56.355Z,40.33
2019-02-04T15:40:08.179Z,32.93
2019-02-04T15:46:38.964Z,28.40
2019-02-04T15:52:45.612Z,28.07
2019-02-04T15:58:47.193Z,50.50
2019-02-04T16:04:50.979Z,42.88
2019-02-04T16:10:53.197Z,42.20
2019-02-04T16:16:55.817Z,47.27
2019-02-04T16:22:59.153Z,39.95
2019-02-04T16:29:01.599Z,41.48
2019-02-04T16:35:04.936Z,54.48
2019-02-04T16:41:07.486Z,52.17
2019-02-04T16:47:09.964Z,42.80
2019-02-04T16:53:12.457Z,34.48
2019-02-04T16:59:14.837Z,29.63
2019-02-04T17:05:18.466Z,25.50
2019-02-04T17:11:20.716Z,27.60
2019-02-04T17:17:23.033Z,26.23
2019-02-04T17:23:26.890Z,22.27
2019-02-04T17:29:29.330Z,24.05
2019-02-04T17:35:31.514Z,22.87
2019-02-04T17:41:33.735Z,24.67
2019-02-04T17:47:36.231Z,24.27
2019-02-04T17:53:39.214Z,22.65
2019-02-04T17:59:42.008Z,20.92
2019-02-04T18:05:44.303Z,21.70
2019-02-04T18:11:46.790Z,23.57
2019-02-04T18:17:49.188Z,22.42
2019-02-04T18:23:52.388Z,23.80
2019-02-04T18:29:54.656Z,26.75
2019-02-04T18:35:56.858Z,28.87
2019-02-04T18:41:59.466Z,29.37
2019-02-04T18:48:01.795Z,27.05
2019-02-04T18:54:04.407Z,27.42
2019-02-04T19:00:09.101Z,25.57
2019-02-04T19:06:11.339Z,24.80
2019-02-04T19:12:13.488Z,22.52
2019-02-04T19:18:18.627Z,21.87
2019-02-04T19:24:21.029Z,23.57
2019-02-04T19:30:39.555Z,23.00
2019-02-04T19:36:41.727Z,21.20
2019-02-04T19:42:44.118Z,18.42
2019-02-04T19:48:46.387Z,19.65
2019-02-04T19:54:48.931Z,17.05
2019-02-04T20:00:51.240Z,17.23
2019-02-04T20:06:53.457Z,14.68
2019-02-04T20:12:55.792Z,13.25
2019-02-04T20:18:59.959Z,14.65
2019-02-04T20:25:02.104Z,15.80
2019-02-04T20:31:04.279Z,13.90
2019-02-04T20:37:12.098Z,15.83
2019-02-04T20:43:14.410Z,12.98
2019-02-04T20:49:18.501Z,14.80
2019-02-04T20:55:20.750Z,13.48
2019-02-04T21:01:23.605Z,15.08
2019-02-04T21:07:26.104Z,16.42
2019-02-04T21:13:28.434Z,16.25
2019-02-04T21:19:30.631Z,11.53
2019-02-04T21:25:32.822Z,14.55
2019-02-04T21:31:39.451Z,11.55
2019-02-04T21:37:41.754Z,13.53
2019-02-04T21:43:45.015Z,12.05
2019-02-04T21:49:47.363Z,14.38
2019-02-04T21:55:49.736Z,14.18
2019-02-04T22:01:54.799Z,14.45
2019-02-04T22:07:57.106Z,14.55
2019-02-04T22:13:59.710Z,13.50
2019-02-04T22:20:02.192Z,13.60
2019-02-04T22:26:04.615Z,13.13
2019-02-04T22:32:06.736Z,14.73
2019-02-04T22:38:09.150Z,15.13
2019-02-04T22:44:11.969Z,15.40
2019-02-04T22:50:21.559Z,14.28
2019-02-04T22:56:23.850Z,14.60
2019-02-04T23:02:26.735Z,13.95
2019-02-04T23:08:29.473Z,13.28
2019-02-04T23:14:31.745Z,12.82
2019-02-04T23:20:34.318Z,14.18
2019-02-04T23:26:36.448Z,13.78
2019-02-04T23:32:38.568Z,15.08
2019-02-04T23:38:41.831Z,11.50
2019-02-04T23:44:44.127Z,13.93
2019-02-04T23:50:46.407Z,10.58
2019-02-04T23:56:48.578Z,11.33
